Porter Springs, Texas
Current Conditions -  °F | °C
As of 1:55 PM on Sunday 23 Nov 2014 (Local Time) from KDKR Reporting Station
Clear Clear  
Wind Chill: 79°   Ceiling: Unl
Heat Index: 79°   Visibility: 10mi
Dew Point: 55°   Wind: 20mph
Humidity: 44%   Direction: 220°SW
Pressure: 29.5"   Gusts: 24mph
Location:  31.2828°N, 95.4821°W
Report Text: KDKR 231955Z AUTO 22017G21KT 10SM CLR 26/13 A2950 RMK AO2
Loading
Personal Weather Stations






























Interactive Weather Map New forecast layout! Learn more

10-Day Weather Forecast

Advertisements
Track Severe Weather on mobile